createdAt,value
2018-02-15T00:00:51.804Z,58.17
2018-02-15T00:03:20.377Z,57.92
2018-02-15T00:05:49.930Z,58.17
2018-02-15T00:08:19.248Z,57.51
2018-02-15T00:10:48.022Z,56.60
2018-02-15T00:13:16.627Z,56.36
2018-02-15T00:15:45.180Z,56.56
2018-02-15T00:18:13.728Z,57.18
2018-02-15T00:20:43.096Z,57.86
2018-02-15T00:23:11.645Z,57.11
2018-02-15T00:25:40.192Z,57.49
2018-02-15T00:28:09.549Z,57.83
2018-02-15T00:30:38.093Z,58.24
2018-02-15T00:33:06.640Z,57.92
2018-02-15T00:35:36.205Z,58.32
2018-02-15T00:38:04.752Z,58.82
2018-02-15T00:40:34.066Z,59.28
2018-02-15T00:43:02.678Z,58.87
2018-02-15T00:45:31.224Z,59.45
2018-02-15T00:47:59.772Z,59.53
2018-02-15T00:50:28.460Z,58.66
2018-02-15T00:52:57.014Z,59.55
2018-02-15T00:55:25.560Z,59.36
2018-02-15T00:57:54.147Z,58.48
2018-02-15T01:00:22.703Z,58.81
2018-02-15T01:02:52.016Z,59.04
2018-02-15T01:05:21.472Z,58.63
2018-02-15T01:07:50.784Z,58.12
2018-02-15T01:10:19.325Z,58.06
2018-02-15T01:12:47.928Z,59.28
2018-02-15T01:15:16.476Z,58.97
2018-02-15T01:17:45.020Z,58.64
2018-02-15T01:20:13.887Z,59.28
2018-02-15T01:22:42.431Z,59.88
2018-02-15T01:25:10.977Z,59.07
2018-02-15T01:27:39.741Z,59.65
2018-02-15T01:30:08.284Z,59.51
2018-02-15T01:32:36.849Z,60.35
2018-02-15T01:35:06.510Z,60.23
2018-02-15T01:37:35.047Z,61.14
2018-02-15T01:40:04.359Z,60.59
2018-02-15T01:42:32.960Z,60.42
2018-02-15T01:45:01.501Z,60.67
2018-02-15T01:47:30.824Z,60.81
2018-02-15T01:50:05.084Z,61.91
2018-02-15T01:52:33.660Z,62.00
2018-02-15T01:55:02.970Z,62.25
2018-02-15T01:57:31.661Z,62.77
2018-02-15T02:00:00.203Z,63.02
2018-02-15T02:02:28.822Z,63.07
2018-02-15T02:04:57.704Z,63.27
2018-02-15T02:07:26.254Z,62.33
2018-02-15T02:09:54.803Z,63.18
2018-02-15T02:12:23.760Z,63.17
2018-02-15T02:14:52.346Z,63.23
2018-02-15T02:17:20.904Z,62.56
2018-02-15T02:19:49.521Z,63.32
2018-02-15T02:22:18.068Z,62.47
2018-02-15T02:24:46.622Z,62.59
2018-02-15T02:27:15.984Z,62.73
2018-02-15T02:29:44.536Z,62.89
2018-02-15T02:32:13.081Z,61.74
2018-02-15T02:34:42.769Z,61.92
2018-02-15T02:37:11.324Z,61.86
2018-02-15T02:39:39.884Z,61.97
2018-02-15T02:42:08.487Z,61.59
2018-02-15T02:44:37.040Z,61.62
2018-02-15T02:47:06.355Z,60.35
2018-02-15T02:49:34.988Z,60.05
2018-02-15T02:52:03.536Z,59.02
2018-02-15T02:54:32.088Z,59.10
2018-02-15T02:57:01.444Z,59.40
2018-02-15T02:59:29.996Z,59.67
2018-02-15T03:01:58.544Z,59.43
2018-02-15T03:04:27.906Z,59.45
2018-02-15T03:06:56.447Z,59.56
2018-02-15T03:09:25.084Z,59.64
2018-02-15T03:11:53.678Z,61.00
2018-02-15T03:14:22.239Z,61.38
2018-02-15T03:16:50.792Z,60.90
2018-02-15T03:19:19.384Z,60.69
2018-02-15T03:21:47.932Z,59.96
2018-02-15T03:24:17.248Z,59.93
2018-02-15T03:26:46.615Z,60.85
2018-02-15T03:29:15.172Z,60.59
2018-02-15T03:31:43.716Z,60.34
2018-02-15T03:34:12.543Z,60.82
2018-02-15T03:36:41.093Z,60.92
2018-02-15T03:39:09.643Z,61.20
2018-02-15T03:41:38.341Z,62.03
2018-02-15T03:44:07.664Z,63.32
2018-02-15T03:46:36.216Z,62.59
2018-02-15T03:49:05.173Z,62.24
2018-02-15T03:51:33.724Z,61.99
2018-02-15T03:54:02.272Z,63.20
2018-02-15T03:56:31.127Z,62.81
2018-02-15T03:58:59.672Z,63.13
2018-02-15T04:01:28.989Z,63.55
2018-02-15T04:03:57.740Z,63.26
2018-02-15T04:06:27.060Z,63.13
2018-02-15T04:08:55.611Z,63.66
2018-02-15T04:11:24.474Z,64.28
2018-02-15T04:13:53.020Z,65.14
2018-02-15T04:16:21.571Z,64.40
2018-02-15T04:18:51.040Z,64.68
2018-02-15T04:21:20.404Z,65.00
2018-02-15T04:23:48.957Z,65.66
2018-02-15T04:26:17.560Z,66.10
2018-02-15T04:28:46.884Z,67.08
2018-02-15T04:31:15.435Z,67.93
2018-02-15T04:33:45.204Z,68.59
2018-02-15T04:36:13.751Z,68.84
2018-02-15T04:38:42.296Z,68.72
2018-02-15T04:41:10.904Z,68.21
2018-02-15T04:43:40.218Z,68.60
2018-02-15T04:46:08.767Z,68.08
2018-02-15T04:48:37.378Z,68.35
2018-02-15T04:51:06.696Z,69.19
2018-02-15T04:53:35.248Z,68.59
2018-02-15T04:56:04.764Z,67.06
2018-02-15T04:58:34.076Z,66.26
2018-02-15T05:01:02.623Z,66.88
2018-02-15T05:03:31.234Z,66.61
2018-02-15T05:05:59.788Z,67.59
2018-02-15T05:08:28.349Z,68.25
2018-02-15T05:10:56.945Z,67.58
2018-02-15T05:13:25.508Z,68.40
2018-02-15T05:15:54.057Z,68.61
2018-02-15T05:18:22.656Z,68.18
2018-02-15T05:20:51.208Z,67.49
2018-02-15T05:23:20.544Z,67.59
2018-02-15T05:25:49.152Z,68.06
2018-02-15T05:28:17.705Z,67.77
2018-02-15T05:30:46.259Z,66.87
2018-02-15T05:33:15.724Z,66.55
2018-02-15T05:35:44.283Z,66.50
2018-02-15T05:38:12.840Z,66.77
2018-02-15T05:40:41.588Z,66.79
2018-02-15T05:43:10.907Z,65.35
2018-02-15T05:45:39.472Z,65.25
2018-02-15T05:48:08.832Z,64.74
2018-02-15T05:50:37.407Z,64.04
2018-02-15T05:53:05.969Z,64.58
2018-02-15T05:55:34.580Z,63.33
2018-02-15T05:58:03.136Z,64.06
2018-02-15T06:00:31.688Z,63.64
2018-02-15T06:03:01.064Z,63.95
2018-02-15T06:05:29.689Z,64.01
2018-02-15T06:07:58.239Z,63.93
2018-02-15T06:10:27.775Z,63.72
2018-02-15T06:12:56.327Z,62.51
2018-02-15T06:15:24.880Z,62.61
2018-02-15T06:17:53.488Z,60.37
2018-02-15T06:20:22.044Z,60.77
2018-02-15T06:22:50.596Z,61.33
2018-02-15T06:25:19.409Z,61.34
2018-02-15T06:27:47.965Z,60.30
2018-02-15T06:30:16.499Z,59.04
2018-02-15T06:32:45.270Z,57.46
2018-02-15T06:35:13.816Z,55.91
2018-02-15T06:37:42.364Z,55.40
2018-02-15T06:40:11.244Z,55.68
2018-02-15T06:42:39.811Z,54.46
2018-02-15T06:45:08.357Z,53.21
2018-02-15T06:47:37.172Z,53.55
2018-02-15T06:50:05.723Z,53.50
2018-02-15T06:52:35.036Z,54.37
2018-02-15T06:55:03.647Z,54.41
2018-02-15T06:57:32.194Z,53.24
2018-02-15T07:00:00.744Z,51.80
2018-02-15T07:02:29.344Z,50.98
2018-02-15T07:04:58.656Z,49.32
2018-02-15T07:07:27.232Z,49.59
2018-02-15T07:09:56.990Z,48.33
2018-02-15T07:12:25.540Z,48.37
2018-02-15T07:14:54.088Z,48.71
2018-02-15T07:17:22.840Z,47.64
2018-02-15T07:19:51.388Z,47.45
2018-02-15T07:22:19.944Z,48.39
2018-02-15T07:24:49.732Z,47.75
2018-02-15T07:27:18.276Z,48.00
2018-02-15T07:29:46.832Z,48.12
2018-02-15T07:32:16.286Z,49.13
2018-02-15T07:34:44.831Z,49.21
2018-02-15T07:37:14.146Z,48.69
2018-02-15T07:39:43.057Z,48.50
2018-02-15T07:42:11.611Z,46.81
2018-02-15T07:44:40.167Z,46.00
2018-02-15T07:47:09.727Z,45.94
2018-02-15T07:49:38.316Z,47.31
2018-02-15T07:52:06.900Z,47.67
2018-02-15T07:54:35.608Z,47.56
2018-02-15T07:57:04.183Z,45.88
2018-02-15T07:59:32.764Z,44.83
2018-02-15T08:02:01.747Z,45.48
2018-02-15T08:04:30.296Z,44.85
2018-02-15T08:06:58.852Z,44.90
2018-02-15T08:09:28.215Z,45.93
2018-02-15T08:11:56.771Z,45.10
2018-02-15T08:14:25.328Z,45.02
2018-02-15T08:16:54.836Z,43.44
2018-02-15T08:19:24.156Z,44.93
2018-02-15T08:21:52.707Z,42.88
2018-02-15T08:24:22.264Z,44.04
2018-02-15T08:26:50.816Z,44.55
2018-02-15T08:29:19.367Z,42.53
2018-02-15T08:31:48.332Z,41.78
2018-02-15T08:34:16.880Z,43.85
2018-02-15T08:36:45.440Z,41.07
2018-02-15T08:39:15.016Z,42.38
2018-02-15T08:41:43.583Z,41.21
2018-02-15T08:44:12.140Z,41.80
2018-02-15T08:46:40.963Z,42.00
2018-02-15T08:49:09.523Z,40.88
2018-02-15T08:51:38.072Z,41.94
2018-02-15T08:54:07.435Z,42.11
2018-02-15T08:56:35.984Z,41.46
2018-02-15T08:59:04.539Z,43.46
2018-02-15T09:01:33.912Z,42.58
2018-02-15T09:04:02.472Z,42.78
2018-02-15T09:06:31.020Z,41.99
2018-02-15T09:08:59.851Z,40.54
2018-02-15T09:11:28.400Z,39.65
2018-02-15T09:13:56.952Z,39.94
2018-02-15T09:16:26.628Z,39.46
2018-02-15T09:18:55.230Z,39.58
2018-02-15T09:21:23.816Z,40.49
2018-02-15T09:23:52.756Z,40.60
2018-02-15T09:26:21.312Z,39.36
2018-02-15T09:28:50.628Z,38.65
2018-02-15T09:31:19.239Z,37.46
2018-02-15T09:33:47.788Z,38.85
2018-02-15T09:36:17.105Z,38.79
2018-02-15T09:38:46.131Z,37.83
2018-02-15T09:41:14.684Z,37.91
2018-02-15T09:43:43.239Z,39.25
2018-02-15T09:46:12.604Z,36.06
2018-02-15T09:48:41.155Z,36.44
2018-02-15T09:51:09.699Z,35.37
2018-02-15T09:53:39.072Z,38.98
2018-02-15T09:56:07.632Z,33.85
2018-02-15T09:58:36.229Z,35.34
2018-02-15T10:01:05.591Z,31.66
2018-02-15T10:03:34.914Z,34.90
2018-02-15T10:06:03.473Z,36.70
2018-02-15T10:08:32.075Z,34.67
2018-02-15T10:11:00.628Z,32.81
2018-02-15T10:13:29.941Z,34.91
2018-02-15T10:15:59.308Z,37.36
2018-02-15T10:18:27.864Z,34.24
2018-02-15T10:20:56.420Z,34.25
2018-02-15T10:23:25.032Z,31.96
2018-02-15T10:25:53.580Z,31.67
2018-02-15T10:28:22.144Z,30.34
2018-02-15T10:30:51.704Z,32.48
2018-02-15T10:33:20.260Z,34.33
2018-02-15T10:35:48.819Z,33.67
2018-02-15T10:38:18.191Z,32.59
2018-02-15T10:40:46.757Z,34.31
2018-02-15T10:43:16.120Z,34.80
2018-02-15T10:45:45.049Z,32.24
2018-02-15T10:48:13.612Z,32.76
2018-02-15T10:50:42.176Z,33.22
2018-02-15T10:53:11.005Z,34.44
2018-02-15T10:55:39.561Z,32.45
2018-02-15T10:58:08.116Z,29.76
2018-02-15T11:00:42.949Z,32.35
2018-02-15T11:03:17.632Z,33.32
2018-02-15T11:05:46.260Z,31.58
2018-02-15T11:08:15.583Z,30.81
2018-02-15T11:10:44.144Z,31.86
2018-02-15T11:13:13.525Z,30.98
2018-02-15T11:15:42.085Z,31.80
2018-02-15T11:18:10.667Z,30.95
2018-02-15T11:20:39.285Z,30.97
2018-02-15T11:23:08.620Z,30.45
2018-02-15T11:25:37.184Z,29.62
2018-02-15T11:28:06.577Z,30.28
2018-02-15T11:30:35.905Z,30.50
2018-02-15T11:33:04.470Z,28.75
2018-02-15T11:35:34.023Z,31.75
2018-02-15T11:38:02.605Z,31.91
2018-02-15T11:40:31.163Z,33.26
2018-02-15T11:42:59.777Z,34.57
2018-02-15T11:45:28.352Z,35.26
2018-02-15T11:47:56.916Z,33.64
2018-02-15T11:50:25.532Z,32.88
2018-02-15T11:52:54.848Z,31.17
2018-02-15T11:55:24.204Z,29.94
2018-02-15T11:57:52.821Z,30.23
2018-02-15T12:00:21.401Z,31.68
2018-02-15T12:02:49.984Z,32.64
2018-02-15T12:05:18.592Z,28.76
2018-02-15T12:07:47.156Z,30.08
2018-02-15T12:10:15.720Z,32.36
2018-02-15T12:12:44.336Z,27.21
2018-02-15T12:15:12.916Z,28.45
2018-02-15T12:17:42.296Z,28.84
2018-02-15T12:20:11.313Z,26.31
2018-02-15T12:22:39.876Z,26.61
2018-02-15T12:25:08.432Z,25.81
2018-02-15T12:27:37.240Z,27.09
2018-02-15T12:30:05.852Z,28.11
2018-02-15T12:32:34.424Z,30.32
2018-02-15T12:35:03.412Z,29.47
2018-02-15T12:37:31.975Z,30.93
2018-02-15T12:40:00.527Z,32.53
2018-02-15T12:42:29.904Z,34.56
2018-02-15T12:44:58.462Z,32.32
2018-02-15T12:47:27.021Z,33.70
2018-02-15T12:49:55.631Z,33.71
2018-02-15T12:52:24.185Z,33.05
2018-02-15T12:54:52.737Z,32.38
2018-02-15T12:57:22.209Z,31.55
2018-02-15T12:59:53.204Z,33.24
2018-02-15T13:02:21.768Z,31.30
2018-02-15T13:04:51.129Z,31.79
2018-02-15T13:07:19.681Z,33.89
2018-02-15T13:09:48.267Z,30.65
2018-02-15T13:12:34.660Z,31.76
2018-02-15T13:15:03.289Z,31.57
2018-02-15T13:17:31.850Z,30.57
2018-02-15T13:20:09.038Z,32.53
2018-02-15T13:22:56.196Z,32.46
2018-02-15T13:25:25.568Z,31.67
2018-02-15T13:28:11.762Z,30.97
2018-02-15T13:30:40.448Z,33.99
2018-02-15T13:33:09.004Z,33.94
2018-02-15T13:35:37.561Z,34.22
2018-02-15T13:38:06.392Z,33.26
2018-02-15T13:40:34.951Z,34.63
2018-02-15T13:43:03.500Z,34.67
2018-02-15T13:45:32.970Z,34.63
2018-02-15T13:48:01.520Z,32.30
2018-02-15T13:50:30.084Z,33.85
2018-02-15T13:52:59.636Z,34.97
2018-02-15T13:55:28.270Z,33.03
2018-02-15T13:57:57.738Z,32.70
2018-02-15T14:00:26.517Z,34.97
2018-02-15T14:02:55.197Z,34.25
2018-02-15T14:05:23.893Z,35.11
2018-02-15T14:07:52.634Z,34.53
2018-02-15T14:10:21.263Z,33.19
2018-02-15T14:12:49.894Z,34.54
2018-02-15T14:15:19.652Z,33.37
2018-02-15T14:17:48.306Z,33.71
2018-02-15T14:20:17.025Z,33.55
2018-02-15T14:22:45.817Z,33.89
2018-02-15T14:25:14.507Z,34.27
2018-02-15T14:27:43.056Z,37.61
2018-02-15T14:30:11.758Z,36.88
2018-02-15T14:32:40.319Z,37.75
2018-02-15T14:35:08.877Z,38.23
2018-02-15T14:37:38.543Z,38.61
2018-02-15T14:40:07.089Z,37.86
2018-02-15T14:42:35.639Z,38.12
2018-02-15T14:45:05.017Z,37.05
2018-02-15T14:47:34.341Z,36.09
2018-02-15T14:50:03.685Z,36.36
2018-02-15T14:52:32.607Z,35.67
2018-02-15T14:55:01.165Z,35.05
2018-02-15T14:57:29.734Z,36.07
2018-02-15T14:59:58.356Z,35.29
2018-02-15T15:02:27.002Z,36.14
2018-02-15T15:04:55.741Z,38.06
2018-02-15T15:07:24.468Z,37.26
2018-02-15T15:09:53.024Z,37.61
2018-02-15T15:12:21.576Z,37.86
2018-02-15T15:14:50.276Z,38.52
2018-02-15T15:17:18.836Z,38.14
2018-02-15T15:19:47.397Z,38.75
2018-02-15T15:22:16.223Z,39.46
2018-02-15T15:24:44.776Z,38.96
2018-02-15T15:27:13.337Z,40.77
2018-02-15T15:29:43.091Z,41.17
2018-02-15T15:32:11.652Z,41.14
2018-02-15T15:34:40.206Z,41.73
2018-02-15T15:37:09.580Z,42.04
2018-02-15T15:39:38.157Z,42.21
2018-02-15T15:42:06.708Z,43.00
2018-02-15T15:44:35.316Z,41.76
2018-02-15T15:47:03.876Z,40.97
2018-02-15T15:49:32.439Z,41.21
2018-02-15T15:52:01.373Z,42.50
2018-02-15T15:54:29.948Z,42.08
2018-02-15T15:56:58.537Z,42.69
2018-02-15T15:59:27.232Z,43.50
2018-02-15T16:01:56.588Z,43.09
2018-02-15T16:04:30.072Z,43.27
2018-02-15T16:06:58.668Z,44.04
2018-02-15T16:09:28.296Z,43.46
2018-02-15T16:11:56.856Z,43.88
2018-02-15T16:14:26.180Z,42.78
2018-02-15T16:16:54.979Z,43.07
2018-02-15T16:19:23.532Z,42.95
2018-02-15T16:21:52.087Z,43.12
2018-02-15T16:24:21.453Z,43.51
2018-02-15T16:26:50.013Z,42.93
2018-02-15T16:29:18.612Z,42.96
2018-02-15T16:31:47.365Z,42.32
2018-02-15T16:34:16.688Z,42.33
2018-02-15T16:36:45.245Z,42.63
2018-02-15T16:39:14.624Z,42.43
2018-02-15T16:41:43.436Z,43.26
2018-02-15T16:44:11.997Z,42.36
2018-02-15T16:46:40.597Z,42.91
2018-02-15T16:49:09.924Z,42.73
2018-02-15T16:51:38.484Z,43.59
2018-02-15T16:54:08.037Z,43.03
2018-02-15T16:56:36.594Z,42.65
2018-02-15T16:59:05.160Z,42.63
2018-02-15T17:01:33.780Z,42.87
2018-02-15T17:04:02.380Z,42.29
2018-02-15T17:06:30.944Z,42.31
2018-02-15T17:08:59.660Z,41.90
2018-02-15T17:11:28.240Z,41.92
2018-02-15T17:13:56.810Z,41.33
2018-02-15T17:16:25.423Z,41.98
2018-02-15T17:18:54.018Z,40.50
2018-02-15T17:21:23.348Z,41.48
2018-02-15T17:23:52.168Z,41.26
2018-02-15T17:26:20.756Z,42.44
2018-02-15T17:28:49.317Z,41.14
2018-02-15T17:31:18.225Z,42.13
2018-02-15T17:33:46.787Z,41.81
2018-02-15T17:36:15.356Z,41.93
2018-02-15T17:38:44.244Z,41.87
2018-02-15T17:41:12.816Z,42.86
2018-02-15T17:43:42.180Z,41.84
2018-02-15T17:46:10.876Z,41.66
2018-02-15T17:48:39.445Z,40.83
2018-02-15T17:51:08.009Z,41.46
2018-02-15T17:53:36.625Z,42.24
2018-02-15T17:56:05.187Z,43.57
2018-02-15T17:58:33.745Z,46.04
2018-02-15T18:01:02.660Z,46.69
2018-02-15T18:03:31.217Z,47.15
2018-02-15T18:05:59.777Z,47.45
2018-02-15T18:08:29.332Z,47.97
2018-02-15T18:10:58.052Z,47.63
2018-02-15T18:13:26.611Z,46.02
2018-02-15T18:15:55.308Z,47.89
2018-02-15T18:18:23.871Z,45.54
2018-02-15T18:20:53.203Z,47.78
2018-02-15T18:23:22.580Z,47.74
2018-02-15T18:25:51.132Z,49.71
2018-02-15T18:28:19.692Z,43.96
2018-02-15T18:30:48.392Z,46.67
2018-02-15T18:33:16.972Z,47.25
2018-02-15T18:35:45.593Z,48.33
2018-02-15T18:38:14.216Z,48.98
2018-02-15T18:40:43.549Z,49.51
2018-02-15T18:43:12.112Z,50.06
2018-02-15T18:45:42.534Z,49.96
2018-02-15T18:48:11.852Z,49.68
2018-02-15T18:50:40.434Z,49.04
2018-02-15T18:53:09.176Z,47.90
2018-02-15T18:55:37.741Z,48.20
2018-02-15T18:58:06.734Z,47.19
2018-02-15T19:00:35.629Z,48.47
2018-02-15T19:03:04.200Z,47.34
2018-02-15T19:05:32.769Z,49.99
2018-02-15T19:08:01.483Z,54.84
2018-02-15T19:17:15.572Z,56.62
2018-02-15T19:19:44.257Z,58.89
2018-02-15T19:22:12.839Z,57.77
2018-02-15T19:24:44.394Z,57.02
2018-02-15T19:27:13.068Z,57.16
2018-02-15T19:29:45.513Z,58.17
2018-02-15T19:32:15.224Z,58.23
2018-02-15T19:34:43.893Z,57.71
2018-02-15T19:37:13.365Z,56.40
2018-02-15T19:39:42.039Z,56.13
2018-02-15T19:42:10.604Z,55.43
2018-02-15T19:44:39.418Z,55.44
2018-02-15T19:47:07.996Z,54.38
2018-02-15T19:49:36.566Z,54.68
2018-02-15T19:52:05.280Z,55.04
2018-02-15T19:54:33.841Z,55.68
2018-02-15T19:57:03.172Z,56.03
2018-02-15T19:59:31.801Z,55.71
2018-02-15T20:02:01.121Z,56.06
2018-02-15T20:04:29.684Z,57.91
2018-02-15T20:06:59.065Z,60.06
2018-02-15T20:09:27.737Z,60.12
2018-02-15T20:11:56.297Z,59.04
2018-02-15T20:14:25.105Z,58.93
2018-02-15T20:16:53.669Z,58.47
2018-02-15T20:19:25.925Z,57.87
2018-02-15T20:21:54.496Z,58.30
2018-02-15T20:24:23.057Z,57.96
2018-02-15T20:26:58.212Z,57.75
2018-02-15T20:29:26.775Z,56.21
2018-02-15T20:31:56.125Z,55.72
2018-02-15T20:34:24.937Z,55.29
2018-02-15T20:36:53.511Z,55.70
2018-02-15T20:39:27.934Z,55.98
2018-02-15T20:41:56.497Z,55.70
2018-02-15T20:44:25.060Z,55.39
2018-02-15T20:46:53.768Z,55.11
2018-02-15T20:49:27.720Z,55.98
2018-02-15T20:52:01.795Z,56.36
2018-02-15T20:54:35.888Z,56.93
2018-02-15T20:57:04.591Z,57.01
2018-02-15T20:59:33.146Z,56.90
2018-02-15T21:02:01.705Z,57.22
2018-02-15T21:04:30.308Z,57.83
2018-02-15T21:06:58.872Z,58.37
2018-02-15T21:09:28.196Z,58.65
2018-02-15T21:11:56.793Z,57.27
2018-02-15T21:14:25.356Z,57.06
2018-02-15T21:16:53.912Z,57.96
2018-02-15T21:19:22.612Z,57.35
2018-02-15T21:21:51.940Z,56.73
2018-02-15T21:24:20.504Z,56.59
2018-02-15T21:26:50.150Z,56.34
2018-02-15T21:29:18.707Z,56.05
2018-02-15T21:31:47.264Z,56.04
2018-02-15T21:34:16.837Z,56.69
2018-02-15T21:36:45.420Z,57.39
2018-02-15T21:39:13.984Z,57.67
2018-02-15T21:41:42.601Z,57.42
2018-02-15T21:44:11.166Z,57.91
2018-02-15T21:46:39.715Z,59.41
2018-02-15T21:49:08.405Z,60.47
2018-02-15T21:51:36.953Z,61.47
2018-02-15T21:54:05.503Z,60.45
2018-02-15T21:56:34.196Z,60.25
2018-02-15T21:59:02.748Z,59.85
2018-02-15T22:01:31.309Z,59.42
2018-02-15T22:03:59.915Z,58.86
2018-02-15T22:06:28.468Z,58.47
2018-02-15T22:08:57.790Z,58.37
2018-02-15T22:11:26.402Z,57.15
2018-02-15T22:13:55.754Z,57.63
2018-02-15T22:16:25.094Z,58.46
2018-02-15T22:18:53.894Z,58.75
2018-02-15T22:21:22.482Z,58.26
2018-02-15T22:23:51.051Z,57.54
2018-02-15T22:26:19.755Z,56.56
2018-02-15T22:28:48.312Z,56.05
2018-02-15T22:31:16.868Z,56.24
2018-02-15T22:33:45.805Z,54.24
2018-02-15T22:36:14.363Z,52.44
2018-02-15T22:38:43.260Z,51.07
2018-02-15T22:41:12.058Z,50.34
2018-02-15T22:43:40.616Z,49.41
2018-02-15T22:46:09.184Z,49.61
2018-02-15T22:48:37.788Z,48.21
2018-02-15T22:51:06.339Z,47.84
2018-02-15T22:53:35.660Z,47.71
2018-02-15T22:56:04.273Z,47.43
2018-02-15T22:58:32.824Z,47.46
2018-02-15T23:01:01.404Z,47.84
2018-02-15T23:03:30.232Z,48.48
2018-02-15T23:05:58.790Z,48.39
2018-02-15T23:08:27.343Z,48.74
2018-02-15T23:10:56.720Z,49.03
2018-02-15T23:13:25.284Z,50.08
2018-02-15T23:15:53.832Z,50.62
2018-02-15T23:18:22.449Z,51.71
2018-02-15T23:20:51.000Z,51.87
2018-02-15T23:23:19.560Z,51.21
2018-02-15T23:25:48.921Z,50.30
2018-02-15T23:28:17.476Z,51.36
2018-02-15T23:30:46.036Z,50.91
2018-02-15T23:33:14.864Z,50.44
2018-02-15T23:35:43.420Z,49.58
2018-02-15T23:38:11.977Z,49.97
2018-02-15T23:40:41.536Z,50.27
2018-02-15T23:43:10.092Z,49.38
2018-02-15T23:45:38.647Z,49.56
2018-02-15T23:48:08.017Z,49.44
2018-02-15T23:50:36.596Z,49.42
2018-02-15T23:53:05.155Z,52.28
2018-02-15T23:55:33.763Z,53.52
2018-02-15T23:58:02.316Z,54.87
